createdAt,value
2023-04-04T00:03:35.017Z,19.02
2023-04-04T00:08:40.779Z,10.18
2023-04-04T00:13:45.689Z,28.58
2023-04-04T00:18:50.638Z,19.52
2023-04-04T00:23:57.211Z,11.93
2023-04-04T00:29:01.441Z,31.90
2023-04-04T00:34:07.138Z,9.88
2023-04-04T00:39:12.777Z,18.10
2023-04-04T00:44:17.111Z,56.88
2023-04-04T00:49:21.256Z,36.33
2023-04-04T00:54:27.175Z,32.10
2023-04-04T00:59:32.994Z,24.25
2023-04-04T01:04:37.903Z,22.08
2023-04-04T01:09:43.708Z,14.30
2023-04-04T01:14:48.273Z,18.13
2023-04-04T01:20:02.534Z,33.53
2023-04-04T01:25:17.848Z,57.47
2023-04-04T01:30:30.090Z,30.98
2023-04-04T01:35:43.695Z,23.83
2023-04-04T01:40:52.798Z,13.57
2023-04-04T01:46:01.654Z,43.38
2023-04-04T01:51:07.528Z,19.23
2023-04-04T01:56:11.961Z,16.67
2023-04-04T02:01:18.568Z,16.58
2023-04-04T02:06:22.914Z,30.45
2023-04-04T02:11:27.832Z,15.27
2023-04-04T02:16:34.042Z,25.95
2023-04-04T02:21:38.339Z,22.75
2023-04-04T02:26:43.031Z,20.60
2023-04-04T02:31:49.964Z,30.15
2023-04-04T02:36:54.304Z,8.88
2023-04-04T02:42:00.366Z,47.47
2023-04-04T02:47:07.610Z,7.78
2023-04-04T02:52:11.854Z,25.42
2023-04-04T02:57:20.473Z,42.17
2023-04-04T03:02:27.526Z,45.67
2023-04-04T03:07:32.472Z,14.95
2023-04-04T03:12:36.994Z,16.65
2023-04-04T03:17:43.065Z,26.55
2023-04-04T03:22:47.502Z,22.58
2023-04-04T03:27:51.841Z,11.70
2023-04-04T03:33:08.716Z,39.95
2023-04-04T03:38:15.451Z,29.17
2023-04-04T03:43:19.971Z,15.63
2023-04-04T03:48:26.021Z,18.77
2023-04-04T03:53:31.268Z,18.85
2023-04-04T03:58:37.647Z,20.50
2023-04-04T04:03:43.269Z,9.75
2023-04-04T04:08:48.807Z,14.75
2023-04-04T04:13:53.775Z,21.70
2023-04-04T04:18:59.902Z,20.80
2023-04-04T04:24:13.646Z,16.90
2023-04-04T04:29:18.190Z,13.25
2023-04-04T04:34:24.629Z,14.55
2023-04-04T04:39:29.294Z,22.27
2023-04-04T04:44:45.435Z,20.45
2023-04-04T04:49:51.652Z,19.85
2023-04-04T04:55:02.712Z,18.08
2023-04-04T05:00:08.657Z,18.60
2023-04-04T05:05:15.123Z,17.90
2023-04-04T05:10:19.900Z,11.98
2023-04-04T05:15:25.998Z,10.30
2023-04-04T05:20:32.238Z,142.25
2023-04-04T05:25:38.990Z,50.70
2023-04-04T05:30:43.522Z,24.58
2023-04-04T05:36:03.220Z,17.58
2023-04-04T05:41:10.343Z,33.47
2023-04-04T05:46:15.046Z,36.17
2023-04-04T05:56:42.844Z,22.15
2023-04-04T06:07:09.149Z,15.02
2023-04-04T06:12:13.335Z,15.52
2023-04-04T06:17:18.984Z,13.50
2023-04-04T06:22:24.564Z,17.20
2023-04-04T06:27:31.484Z,13.20
2023-04-04T06:32:37.937Z,14.55
2023-04-04T06:37:45.132Z,14.35
2023-04-04T06:42:55.390Z,15.88
2023-04-04T06:48:01.901Z,5.18
2023-04-04T06:53:08.185Z,10.82
2023-04-04T06:58:12.500Z,6.28
2023-04-04T07:03:17.411Z,6.45
2023-04-04T07:08:23.260Z,6.95
2023-04-04T07:13:27.465Z,5.57
2023-04-04T07:18:31.684Z,6.95
2023-04-04T07:23:37.567Z,72.50
2023-04-04T07:28:41.871Z,33.75
2023-04-04T07:33:46.206Z,35.30
2023-04-04T07:38:51.772Z,25.55
2023-04-04T07:43:56.215Z,31.05
2023-04-04T07:49:01.351Z,67.45
2023-04-04T07:54:07.675Z,28.15
2023-04-04T07:59:12.294Z,6.82
2023-04-04T08:04:16.880Z,56.78
2023-04-04T08:09:22.794Z,22.80
2023-04-04T08:14:27.804Z,10.23
2023-04-04T08:19:32.121Z,17.75
2023-04-04T08:24:38.170Z,9.75
2023-04-04T08:29:42.837Z,15.38
2023-04-04T08:34:47.550Z,24.85
2023-04-04T08:39:53.342Z,13.07
2023-04-04T08:45:00.874Z,3.28
2023-04-04T08:50:07.778Z,10.88
2023-04-04T08:55:16.284Z,7.85
2023-04-04T09:00:21.710Z,6.70
2023-04-04T09:05:27.443Z,6.28
2023-04-04T09:10:33.454Z,14.93
2023-04-04T09:15:39.812Z,7.25
2023-04-04T09:20:45.475Z,3.75
2023-04-04T09:31:02.574Z,4.43
2023-04-04T09:36:10.485Z,9.57
2023-04-04T09:41:17.821Z,8.55
2023-04-04T09:46:22.384Z,4.60
2023-04-04T09:51:27.638Z,3.30
2023-04-04T09:56:35.062Z,2.40
2023-04-04T10:01:40.160Z,2.88
2023-04-04T10:06:46.192Z,6.30
2023-04-04T10:11:52.230Z,6.15
2023-04-04T10:16:58.464Z,5.60
2023-04-04T10:22:03.104Z,4.88
2023-04-04T10:27:08.728Z,4.47
2023-04-04T10:32:21.383Z,5.63
2023-04-04T10:37:29.143Z,4.22
2023-04-04T10:42:41.083Z,7.43
2023-04-04T10:47:46.795Z,7.20
2023-04-04T10:52:52.035Z,2.72
2023-04-04T10:57:58.392Z,4.05
2023-04-04T11:03:03.929Z,5.45
2023-04-04T11:08:10.974Z,4.72
2023-04-04T11:13:18.648Z,2.70
2023-04-04T11:18:33.364Z,3.60
2023-04-04T11:24:18.588Z,3.63
2023-04-04T11:29:51.691Z,3.92
2023-04-04T11:34:58.930Z,8.80
2023-04-04T11:40:13.404Z,5.88
2023-04-04T11:45:22.562Z,8.82
2023-04-04T11:50:28.446Z,6.10
2023-04-04T11:55:33.461Z,4.80
2023-04-04T12:00:40.228Z,8.73
2023-04-04T12:05:45.720Z,28.13
2023-04-04T12:10:49.986Z,53.90
2023-04-04T12:15:57.861Z,19.85
2023-04-04T12:21:02.326Z,21.40
2023-04-04T12:26:07.403Z,7.35
2023-04-04T12:31:14.672Z,13.93
2023-04-04T12:36:19.697Z,6.57
2023-04-04T12:41:23.994Z,5.30
2023-04-04T12:46:30.026Z,10.18
2023-04-04T12:51:35.284Z,9.88
2023-04-04T12:56:40.503Z,36.38
2023-04-04T13:01:48.582Z,12.65
2023-04-04T13:06:53.041Z,3.55
2023-04-04T13:11:59.573Z,10.20
2023-04-04T13:17:08.588Z,5.57
2023-04-04T13:22:13.833Z,8.27
2023-04-04T13:27:18.957Z,33.65
2023-04-04T13:32:25.670Z,15.45
2023-04-04T13:37:30.888Z,9.55
2023-04-04T13:42:36.388Z,7.88
2023-04-04T13:47:43.818Z,17.95
2023-04-04T13:52:48.716Z,14.55
2023-04-04T13:57:53.533Z,8.38
2023-04-04T14:03:00.814Z,6.93
2023-04-04T14:08:06.598Z,6.40
2023-04-04T14:13:12.577Z,4.25
2023-04-04T14:18:19.646Z,6.72
2023-04-04T14:23:24.813Z,37.88
2023-04-04T14:28:29.457Z,7.70
2023-04-04T14:33:36.415Z,6.53
2023-04-04T14:38:41.733Z,5.38
2023-04-04T14:43:46.203Z,5.00
2023-04-04T14:48:53.540Z,8.73
2023-04-04T14:53:58.601Z,5.45
2023-04-04T14:59:06.202Z,13.45
2023-04-04T15:04:12.211Z,40.55
2023-04-04T15:09:17.319Z,41.42
2023-04-04T15:14:22.177Z,39.47
2023-04-04T15:19:29.130Z,13.07
2023-04-04T15:24:34.050Z,108.95
2023-04-04T15:29:39.619Z,37.40
2023-04-04T15:34:45.936Z,58.67
2023-04-04T15:39:53.486Z,109.43
2023-04-04T15:44:59.926Z,51.53
2023-04-04T15:50:07.201Z,72.10
2023-04-04T15:55:13.769Z,44.92
2023-04-04T16:00:20.035Z,38.90
2023-04-04T16:05:27.483Z,84.50
2023-04-04T16:10:33.176Z,83.68
2023-04-04T16:15:39.135Z,49.97
2023-04-04T16:20:45.866Z,26.15
2023-04-04T16:25:51.377Z,81.97
2023-04-04T16:30:56.472Z,28.13
2023-04-04T16:36:02.565Z,102.68
2023-04-04T16:41:08.115Z,74.03
2023-04-04T16:46:13.680Z,63.90
2023-04-04T16:51:21.824Z,102.90
2023-04-04T16:56:26.605Z,211.50
2023-04-04T17:01:32.685Z,103.90
2023-04-04T17:06:39.427Z,18.70
2023-04-04T17:11:45.313Z,30.27
2023-04-04T17:16:50.568Z,24.08
2023-04-04T17:21:57.209Z,61.42
2023-04-04T17:27:02.837Z,12.55
2023-04-04T17:32:08.465Z,14.77
2023-04-04T17:37:15.872Z,12.00
2023-04-04T17:42:21.839Z,8.27
2023-04-04T17:47:26.694Z,7.40
2023-04-04T17:52:33.625Z,28.63
2023-04-04T17:57:39.361Z,13.90
2023-04-04T18:02:44.721Z,24.35
2023-04-04T18:07:51.383Z,31.58
2023-04-04T18:12:57.083Z,31.10
2023-04-04T18:18:02.325Z,15.52
2023-04-04T18:23:09.722Z,11.25
2023-04-04T18:28:14.415Z,12.18
2023-04-04T18:33:19.883Z,13.68
2023-04-04T18:38:26.137Z,13.20
2023-04-04T18:43:31.297Z,78.63
2023-04-04T18:48:35.932Z,25.65
2023-04-04T18:53:42.186Z,16.60
2023-04-04T18:58:47.027Z,29.35
2023-04-04T19:03:53.981Z,27.83
2023-04-04T19:09:04.283Z,15.65
2023-04-04T19:14:09.315Z,17.42
2023-04-04T19:19:13.997Z,15.88
2023-04-04T19:24:19.859Z,52.25
2023-04-04T19:29:24.572Z,36.85
2023-04-04T19:34:30.977Z,77.63
2023-04-04T19:39:36.942Z,35.95
2023-04-04T19:44:42.652Z,114.30
2023-04-04T19:49:46.987Z,122.93
2023-04-04T19:54:53.265Z,73.97
2023-04-04T20:00:01.943Z,48.60
2023-04-04T20:05:46.946Z,35.42
2023-04-04T20:10:57.219Z,41.75
2023-04-04T20:16:06.976Z,51.30
2023-04-04T20:21:13.899Z,92.70
2023-04-04T20:26:47.401Z,64.55
2023-04-04T20:31:54.559Z,68.97
2023-04-04T20:36:59.229Z,87.18
2023-04-04T20:42:18.239Z,67.88
2023-04-04T20:47:42.943Z,88.90
2023-04-04T20:52:50.426Z,188.65
2023-04-04T20:57:58.899Z,115.32
2023-04-04T21:03:10.820Z,95.37
2023-04-04T21:08:39.159Z,114.15
2023-04-04T21:13:46.108Z,85.88
2023-04-04T21:18:50.745Z,90.20
2023-04-04T21:23:56.078Z,96.07
2023-04-04T21:29:04.111Z,112.57
2023-04-04T21:34:13.872Z,115.95
2023-04-04T21:39:23.807Z,134.35
2023-04-04T21:44:29.806Z,128.82
2023-04-04T21:49:34.051Z,147.50
2023-04-04T21:54:38.331Z,216.27
2023-04-04T21:59:44.129Z,127.40
2023-04-04T22:04:48.464Z,180.45
2023-04-04T22:09:53.050Z,81.13
2023-04-04T22:14:59.130Z,94.57
2023-04-04T22:20:09.568Z,76.13
2023-04-04T22:25:14.234Z,82.40
2023-04-04T22:30:19.881Z,75.35
2023-04-04T22:35:24.224Z,84.43
2023-04-04T22:40:29.084Z,63.92
2023-04-04T22:45:35.001Z,63.92
2023-04-04T22:50:39.438Z,68.55
2023-04-04T22:55:44.040Z,62.03
2023-04-04T23:00:50.603Z,57.85
2023-04-04T23:05:55.582Z,55.92
2023-04-04T23:10:59.681Z,68.10
2023-04-04T23:16:06.003Z,66.28
2023-04-04T23:21:10.314Z,81.05
2023-04-04T23:26:15.037Z,84.47
2023-04-04T23:31:20.750Z,78.43
2023-04-04T23:36:24.948Z,72.72
2023-04-04T23:41:29.366Z,94.55
2023-04-04T23:46:35.551Z,84.45
2023-04-04T23:51:40.167Z,83.20
2023-04-04T23:56:44.417Z,82.60
